Vergas, Minnesota
Current Conditions -  °F | °C
As of 5:15 PM on Sunday 21 Dec 2014 (Local Time) from KDTL Reporting Station
Overcast Overcast  
Wind Chill: 23°   Ceiling: 400
Heat Index: 32°   Visibility: 7mi
Dew Point: 32°   Wind: 13mph
Humidity: 100%   Direction: 140°SE
Pressure: 29.61"   Gusts: NA
Location:  46.66°N, 95.81°W
Report Text: KDTL 212315Z AUTO 14011KT 7SM OVC004 00/00 A2961 RMK AO2
Loading
Personal Weather Stations






























Interactive Weather Map New forecast layout! Learn more

10-Day Weather Forecast

Advertisements
Track Severe Weather on mobile